Time;durP1;ratioP1;P1;durP2;ratioP2;P2;SDS_P1;SDS_P2;PMS_P1;PMS_P2;Temp;Humidity;BMP_temperature;BMP_pressure;BME280_temperature;BME280_humidity;BME280_pressure;Samples;Min_cycle;Max_cycle;Signal;HPM_P1;HPM_P2
2023/09/26 00:00:20;;;;;;;2.72;2.53;;;;;;;;;;5084858;28;20105;-64
2023/09/26 00:02:49;;;;;;;2.58;2.38;;;;;;;;;;5086680;28;20131;-64
2023/09/26 00:05:20;;;;;;;2.80;2.60;;;;;;;;;;5084200;28;20055;-66
2023/09/26 00:07:49;;;;;;;2.53;2.33;;;;;;;;;;5087091;28;20420;-64
2023/09/26 00:10:19;;;;;;;2.22;2.13;;;;;;;;;;5080871;28;20047;-63
2023/09/26 00:12:48;;;;;;;2.38;2.28;;;;;;;;;;5082407;28;20126;-63
2023/09/26 00:15:16;;;;;;;2.55;2.35;;;;;;;;;;5083444;28;20052;-64
2023/09/26 00:17:45;;;;;;;2.88;2.67;;;;;;;;;;5085893;28;20040;-63
2023/09/26 00:20:17;;;;;;;2.50;2.30;;;;;;;;;;5084806;28;20040;-64
2023/09/26 00:22:45;;;;;;;3.35;2.47;;;;;;;;;;5081044;28;20101;-64
2023/09/26 00:25:14;;;;;;;2.88;2.67;;;;;;;;;;5081619;28;20044;-64
2023/09/26 00:27:44;;;;;;;2.40;2.30;;;;;;;;;;5086340;28;20054;-65
2023/09/26 00:30:14;;;;;;;2.25;2.08;;;;;;;;;;5086499;28;20101;-65
2023/09/26 00:32:43;;;;;;;2.10;1.90;;;;;;;;;;5082881;28;20050;-64
2023/09/26 00:35:12;;;;;;;2.50;2.40;;;;;;;;;;5084066;28;20303;-63
2023/09/26 00:37:41;;;;;;;2.33;2.22;;;;;;;;;;5082276;28;20046;-67
2023/09/26 00:40:14;;;;;;;2.53;2.33;;;;;;;;;;5079882;28;20055;-67
2023/09/26 00:42:45;;;;;;;2.63;2.42;;;;;;;;;;5086434;28;20080;-64
2023/09/26 00:45:13;;;;;;;2.65;2.45;;;;;;;;;;5086203;28;20047;-63
2023/09/26 00:47:42;;;;;;;2.72;2.53;;;;;;;;;;5085267;28;20078;-63
2023/09/26 00:50:12;;;;;;;2.50;2.30;;;;;;;;;;5082075;28;20044;-63
2023/09/26 00:52:41;;;;;;;2.72;2.53;;;;;;;;;;5080749;28;20054;-63
2023/09/26 00:55:10;;;;;;;2.60;2.40;;;;;;;;;;5084163;28;20036;-65
2023/09/26 00:57:40;;;;;;;2.30;2.20;;;;;;;;;;5085408;28;20067;-64
2023/09/26 01:00:13;;;;;;;2.63;2.42;;;;;;;;;;5080811;28;20136;-67
2023/09/26 01:02:41;;;;;;;2.35;2.17;;;;;;;;;;5082126;28;20114;-64
2023/09/26 01:05:10;;;;;;;2.40;2.30;;;;;;;;;;5082520;28;20089;-66
2023/09/26 01:07:40;;;;;;;4.97;2.58;;;;;;;;;;5088082;28;20251;-64
2023/09/26 01:10:10;;;;;;;2.50;2.40;;;;;;;;;;5084287;28;20065;-64
2023/09/26 01:12:39;;;;;;;2.47;2.28;;;;;;;;;;5084600;28;20051;-64
2023/09/26 01:15:08;;;;;;;2.92;2.72;;;;;;;;;;5081463;28;20064;-65
2023/09/26 01:17:38;;;;;;;2.80;2.60;;;;;;;;;;5080179;28;20032;-64
2023/09/26 01:20:13;;;;;;;2.47;2.28;;;;;;;;;;5081828;28;20040;-66
2023/09/26 01:22:41;;;;;;;;;;;;;;;;;;5083786;28;20056;-64
2023/09/26 01:25:11;;;;;;;2.33;2.17;;;;;;;;;;5081574;28;19950;-64
2023/09/26 01:27:40;;;;;;;2.40;2.30;;;;;;;;;;5086336;28;20040;-63
2023/09/26 01:30:09;;;;;;;2.60;2.40;;;;;;;;;;5080591;28;20139;-64
2023/09/26 01:32:38;;;;;;;2.40;2.30;;;;;;;;;;5077366;28;20782;-64
2023/09/26 01:35:07;;;;;;;2.28;2.17;;;;;;;;;;5080897;28;20044;-67
2023/09/26 01:37:35;;;;;;;2.63;2.42;;;;;;;;;;5084707;28;20066;-64
2023/09/26 01:40:10;;;;;;;2.55;2.35;;;;;;;;;;5082092;28;20501;-65
2023/09/26 01:42:40;;;;;;;2.70;2.50;;;;;;;;;;5084738;28;20094;-64
2023/09/26 01:45:10;;;;;;;2.28;2.17;;;;;;;;;;5076599;28;20541;-64
2023/09/26 01:47:41;;;;;;;2.80;2.60;;;;;;;;;;5082892;28;20048;-67
2023/09/26 01:50:10;;;;;;;2.20;2.10;;;;;;;;;;5076652;28;20048;-65
2023/09/26 01:52:38;;;;;;;3.00;2.08;;;;;;;;;;5085350;28;20036;-64
2023/09/26 01:55:07;;;;;;;2.30;2.20;;;;;;;;;;5082520;27;20077;-67
2023/09/26 01:57:36;;;;;;;2.38;2.22;;;;;;;;;;5087743;28;20048;-65
2023/09/26 02:00:10;;;;;;;2.80;2.60;;;;;;;;;;5081314;28;20048;-68
2023/09/26 02:02:39;;;;;;;2.25;2.15;;;;;;;;;;5076568;28;20738;-64
2023/09/26 02:05:08;;;;;;;2.33;2.22;;;;;;;;;;5079382;28;20047;-66
2023/09/26 02:07:37;;;;;;;2.60;2.40;;;;;;;;;;5084614;28;20063;-65
2023/09/26 02:10:05;;;;;;;2.33;2.10;;;;;;;;;;5079869;28;20137;-65
2023/09/26 02:12:34;;;;;;;2.45;2.35;;;;;;;;;;5083889;28;20051;-64
2023/09/26 02:15:04;;;;;;;2.58;2.30;;;;;;;;;;5081334;28;20040;-65
2023/09/26 02:17:35;;;;;;;3.42;2.67;;;;;;;;;;5075400;28;20520;-64
2023/09/26 02:20:08;;;;;;;2.20;2.08;;;;;;;;;;5083894;28;20139;-65
2023/09/26 02:22:37;;;;;;;2.80;2.60;;;;;;;;;;5082473;28;20282;-64
2023/09/26 02:25:05;;;;;;;2.50;2.30;;;;;;;;;;5082280;28;20508;-67
2023/09/26 02:27:34;;;;;;;2.55;2.45;;;;;;;;;;5082564;28;20048;-64
2023/09/26 02:30:04;;;;;;;2.55;2.35;;;;;;;;;;5078582;28;20110;-65
2023/09/26 02:32:34;;;;;;;2.22;2.13;;;;;;;;;;5081965;28;20611;-66
2023/09/26 02:35:03;;;;;;;2.90;2.70;;;;;;;;;;5083830;28;20366;-64
2023/09/26 02:37:31;;;;;;;2.53;2.38;;;;;;;;;;5081997;28;20076;-65
2023/09/26 02:40:00;;;;;;;2.40;2.28;;;;;;;;;;5081701;28;20047;-64
2023/09/26 02:42:29;;;;;;;2.95;2.70;;;;;;;;;;5082519;28;20048;-63
2023/09/26 02:44:57;;;;;;;2.42;2.28;;;;;;;;;;5082960;28;21474;-67
2023/09/26 02:47:26;;;;;;;2.80;2.60;;;;;;;;;;5081876;28;20136;-65
2023/09/26 02:49:56;;;;;;;2.58;2.38;;;;;;;;;;5080848;28;20754;-63
2023/09/26 02:52:26;;;;;;;2.72;2.53;;;;;;;;;;5078700;28;20146;-65
2023/09/26 02:54:55;;;;;;;2.92;2.72;;;;;;;;;;5082746;28;20051;-63
2023/09/26 02:57:24;;;;;;;2.70;2.50;;;;;;;;;;5082008;28;20040;-65
2023/09/26 02:59:52;;;;;;;2.80;2.60;;;;;;;;;;5084420;28;20382;-63
2023/09/26 03:02:21;;;;;;;2.63;2.42;;;;;;;;;;5081740;28;20509;-64
2023/09/26 03:04:50;;;;;;;2.92;2.72;;;;;;;;;;5080232;28;20052;-64
2023/09/26 03:07:19;;;;;;;2.30;2.20;;;;;;;;;;5080591;28;20052;-66
2023/09/26 03:09:48;;;;;;;2.63;2.42;;;;;;;;;;5084008;28;20054;-64
2023/09/26 03:12:16;;;;;;;2.55;2.38;;;;;;;;;;5082832;28;20048;-64
2023/09/26 03:14:45;;;;;;;2.85;2.65;;;;;;;;;;5080828;28;20040;-65
2023/09/26 03:17:13;;;;;;;2.50;2.40;;;;;;;;;;5076319;28;20118;-64
2023/09/26 03:19:41;;;;;;;2.60;2.40;;;;;;;;;;5079772;28;20071;-67
2023/09/26 03:22:10;;;;;;;2.80;2.60;;;;;;;;;;5080416;28;20063;-68
2023/09/26 03:24:40;;;;;;;3.03;2.83;;;;;;;;;;5083307;28;20044;-64
2023/09/26 03:27:08;;;;;;;2.47;2.38;;;;;;;;;;5084391;28;20701;-65
2023/09/26 03:29:36;;;;;;;3.00;2.80;;;;;;;;;;5080537;28;20454;-64
2023/09/26 03:32:05;;;;;;;2.88;2.67;;;;;;;;;;5079320;28;20164;-64
2023/09/26 03:34:33;;;;;;;3.00;2.67;;;;;;;;;;5081367;28;20048;-63
2023/09/26 03:37:02;;;;;;;2.55;2.45;;;;;;;;;;5082224;28;20048;-63
2023/09/26 03:39:30;;;;;;;2.85;2.65;;;;;;;;;;5078723;28;20092;-65
2023/09/26 03:42:00;;;;;;;3.22;3.03;;;;;;;;;;5079516;28;20613;-63
2023/09/26 03:44:28;;;;;;;2.40;2.30;;;;;;;;;;5079997;28;20454;-66
2023/09/26 03:46:57;;;;;;;3.00;2.80;;;;;;;;;;5078883;28;20521;-65
2023/09/26 03:49:25;;;;;;;3.03;2.78;;;;;;;;;;5080476;28;20048;-65
2023/09/26 03:51:54;;;;;;;2.75;2.53;;;;;;;;;;5081247;28;20044;-63
2023/09/26 03:54:22;;;;;;;2.88;2.67;;;;;;;;;;5081960;28;20138;-65
2023/09/26 03:56:50;;;;;;;2.92;2.72;;;;;;;;;;5080418;28;20489;-64
2023/09/26 03:59:20;;;;;;;2.53;2.42;;;;;;;;;;5081608;28;20075;-63
2023/09/26 04:01:48;;;;;;;2.85;2.63;;;;;;;;;;5072221;28;20105;-65
2023/09/26 04:04:17;;;;;;;2.72;2.53;;;;;;;;;;5079918;28;20504;-64
2023/09/26 04:06:45;;;;;;;2.40;2.30;;;;;;;;;;5076804;28;20147;-64
2023/09/26 04:09:14;;;;;;;2.60;2.40;;;;;;;;;;5081530;28;20493;-65
2023/09/26 04:11:43;;;;;;;2.90;2.65;;;;;;;;;;5079998;28;20083;-65
2023/09/26 04:14:11;;;;;;;3.00;2.80;;;;;;;;;;5080608;28;20059;-67
2023/09/26 04:16:41;;;;;;;2.50;2.30;;;;;;;;;;5076206;28;20451;-64
2023/09/26 04:19:09;;;;;;;2.90;2.70;;;;;;;;;;5083091;28;20040;-67
2023/09/26 04:21:38;;;;;;;3.00;2.80;;;;;;;;;;5076975;28;20048;-65
2023/09/26 04:24:06;;;;;;;2.75;2.50;;;;;;;;;;5072922;28;20593;-63
2023/09/26 04:26:35;;;;;;;2.60;2.40;;;;;;;;;;5069080;28;20098;-63
2023/09/26 04:29:04;;;;;;;2.83;2.63;;;;;;;;;;5074049;28;20098;-67
2023/09/26 04:31:33;;;;;;;2.47;2.33;;;;;;;;;;5069990;28;20079;-67
2023/09/26 04:34:03;;;;;;;2.63;2.42;;;;;;;;;;5084553;28;20074;-63
2023/09/26 04:36:32;;;;;;;2.45;2.35;;;;;;;;;;5081652;28;20163;-65
2023/09/26 04:39:00;;;;;;;3.00;2.80;;;;;;;;;;5081208;28;20068;-64
2023/09/26 04:41:29;;;;;;;2.60;2.40;;;;;;;;;;5079089;28;20093;-65
2023/09/26 04:43:57;;;;;;;2.90;2.70;;;;;;;;;;5079746;28;20121;-66
2023/09/26 04:46:25;;;;;;;2.38;2.28;;;;;;;;;;5078880;28;20469;-62
2023/09/26 04:48:54;;;;;;;3.15;2.95;;;;;;;;;;5075336;28;21958;-64
2023/09/26 04:51:24;;;;;;;2.55;2.35;;;;;;;;;;5080155;28;20119;-64
2023/09/26 04:53:52;;;;;;;2.60;2.40;;;;;;;;;;5080597;28;20055;-64
2023/09/26 04:56:20;;;;;;;3.17;2.97;;;;;;;;;;5080360;28;20123;-64
2023/09/26 04:58:49;;;;;;;3.15;2.85;;;;;;;;;;5082061;28;20040;-63
2023/09/26 05:01:17;;;;;;;2.95;2.75;;;;;;;;;;5080289;28;20117;-65
2023/09/26 05:03:46;;;;;;;2.80;2.60;;;;;;;;;;5086278;28;20048;-64
2023/09/26 05:06:15;;;;;;;2.65;2.45;;;;;;;;;;5085536;28;20473;-63
2023/09/26 05:08:44;;;;;;;2.88;2.67;;;;;;;;;;5087866;28;20101;-63
2023/09/26 05:11:16;;;;;;;2.85;2.65;;;;;;;;;;5087034;28;21056;-64
2023/09/26 05:13:45;;;;;;;2.53;2.33;;;;;;;;;;5080579;28;20102;-63
2023/09/26 05:16:14;;;;;;;3.13;2.90;;;;;;;;;;5081631;28;20112;-65
2023/09/26 05:18:43;;;;;;;2.60;2.40;;;;;;;;;;5079080;28;20139;-62
2023/09/26 05:21:11;;;;;;;2.92;2.72;;;;;;;;;;5082272;28;20282;-62
2023/09/26 05:23:40;;;;;;;2.40;2.28;;;;;;;;;;5084312;28;20363;-62
2023/09/26 05:26:10;;;;;;;2.70;2.45;;;;;;;;;;5080334;28;20072;-63
2023/09/26 05:28:39;;;;;;;2.67;2.47;;;;;;;;;;5081003;28;20044;-62
2023/09/26 05:31:08;;;;;;;2.53;2.33;;;;;;;;;;5073086;28;20099;-61
2023/09/26 05:33:36;;;;;;;2.60;2.40;;;;;;;;;;5078354;28;20048;-61
2023/09/26 05:36:05;;;;;;;2.80;2.60;;;;;;;;;;5080642;28;20044;-61
2023/09/26 05:38:33;;;;;;;2.20;2.10;;;;;;;;;;5081631;28;20067;-63
2023/09/26 05:41:02;;;;;;;2.90;2.70;;;;;;;;;;5087786;28;20051;-62
2023/09/26 05:43:32;;;;;;;2.33;2.17;;;;;;;;;;5087178;28;20477;-62
2023/09/26 05:46:03;;;;;;;2.20;2.10;;;;;;;;;;5083750;28;20048;-62
2023/09/26 05:48:31;;;;;;;2.70;2.50;;;;;;;;;;5082592;28;20148;-62
2023/09/26 05:51:00;;;;;;;2.45;2.30;;;;;;;;;;5079066;28;20040;-62
2023/09/26 05:53:28;;;;;;;2.83;2.40;;;;;;;;;;5081332;28;20056;-64
2023/09/26 05:55:57;;;;;;;2.70;2.50;;;;;;;;;;5084842;28;20052;-66
2023/09/26 05:58:25;;;;;;;2.80;2.47;;;;;;;;;;5081564;28;20070;-63
2023/09/26 06:00:56;;;;;;;2.60;2.42;;;;;;;;;;5082740;28;20471;-62
2023/09/26 06:03:25;;;;;;;2.40;2.30;;;;;;;;;;5078092;28;20556;-62
2023/09/26 06:05:53;;;;;;;2.20;2.10;;;;;;;;;;5080794;28;20417;-62
2023/09/26 06:08:22;;;;;;;2.70;2.47;;;;;;;;;;5074724;28;20473;-61
2023/09/26 06:10:55;;;;;;;2.75;2.42;;;;;;;;;;5074681;28;20139;-62
2023/09/26 06:13:24;;;;;;;2.50;2.28;;;;;;;;;;5074181;28;20329;-62
2023/09/26 06:15:52;;;;;;;3.90;2.40;;;;;;;;;;5078631;28;20052;-61
2023/09/26 06:18:22;;;;;;;2.55;2.28;;;;;;;;;;5079617;28;20055;-62
2023/09/26 06:20:51;;;;;;;2.25;2.15;;;;;;;;;;5079566;28;20050;-63
2023/09/26 06:23:19;;;;;;;4.00;2.67;;;;;;;;;;5081693;28;20496;-60
2023/09/26 06:25:47;;;;;;;2.85;2.65;;;;;;;;;;5085401;28;20075;-61
2023/09/26 06:28:24;;;;;;;2.97;2.67;;;;;;;;;;5083255;28;20127;-62
2023/09/26 06:30:52;;;;;;;3.00;2.70;;;;;;;;;;5082993;28;20539;-61
2023/09/26 06:33:20;;;;;;;2.55;2.35;;;;;;;;;;5083281;28;20581;-62
2023/09/26 06:35:50;;;;;;;3.45;2.75;;;;;;;;;;5082018;28;20367;-62
2023/09/26 06:38:19;;;;;;;2.70;2.50;;;;;;;;;;5083275;28;20113;-61
2023/09/26 06:40:48;;;;;;;3.45;2.70;;;;;;;;;;5081884;28;20053;-61
2023/09/26 06:43:16;;;;;;;3.10;2.88;;;;;;;;;;5082131;28;20044;-63
2023/09/26 06:45:44;;;;;;;2.83;2.63;;;;;;;;;;5081821;28;20052;-64
2023/09/26 06:48:13;;;;;;;3.10;2.90;;;;;;;;;;5082734;28;20123;-62
2023/09/26 06:50:44;;;;;;;2.95;2.58;;;;;;;;;;5085008;28;20052;-63
2023/09/26 06:53:13;;;;;;;2.80;2.60;;;;;;;;;;5081006;28;20047;-62
2023/09/26 06:55:42;;;;;;;2.85;2.65;;;;;;;;;;5081408;28;20128;-63
2023/09/26 06:58:10;;;;;;;4.50;3.00;;;;;;;;;;5083951;28;20064;-62
2023/09/26 07:00:39;;;;;;;3.33;2.78;;;;;;;;;;5083797;28;20417;-63
2023/09/26 07:03:07;;;;;;;3.20;2.92;;;;;;;;;;5084155;28;20052;-62
2023/09/26 07:05:36;;;;;;;4.97;3.42;;;;;;;;;;5081788;28;20304;-62
2023/09/26 07:08:05;;;;;;;3.40;3.20;;;;;;;;;;5080215;28;20054;-63
2023/09/26 07:10:39;;;;;;;4.20;3.78;;;;;;;;;;5082612;28;20051;-63
2023/09/26 07:13:07;;;;;;;4.10;3.75;;;;;;;;;;5082539;28;20135;-64
2023/09/26 07:15:59;;;;;;;3.75;3.45;;;;;;;;;;5081325;28;20580;-63
2023/09/26 07:18:27;;;;;;;3.85;3.55;;;;;;;;;;5078665;28;20134;-67
2023/09/26 07:20:56;;;;;;;4.43;3.72;;;;;;;;;;5083005;28;20040;-61
2023/09/26 07:23:24;;;;;;;3.90;3.53;;;;;;;;;;5081964;28;20048;-62
2023/09/26 07:25:54;;;;;;;6.03;3.80;;;;;;;;;;5081864;28;20047;-61
2023/09/26 07:28:22;;;;;;;4.40;4.10;;;;;;;;;;5076552;28;20076;-62
2023/09/26 07:30:53;;;;;;;5.53;5.00;;;;;;;;;;5079238;28;20040;-61
2023/09/26 07:33:21;;;;;;;4.55;4.15;;;;;;;;;;5082922;28;20040;-62
2023/09/26 07:35:52;;;;;;;5.70;5.20;;;;;;;;;;5080266;28;20097;-63
2023/09/26 07:38:21;;;;;;;6.68;5.22;;;;;;;;;;5081799;28;20044;-62
2023/09/26 07:40:49;;;;;;;5.45;4.95;;;;;;;;;;5082518;28;20549;-62
2023/09/26 07:43:19;;;;;;;5.40;4.85;;;;;;;;;;5081120;28;20501;-61
2023/09/26 07:45:49;;;;;;;4.40;4.07;;;;;;;;;;5078462;28;20047;-66
2023/09/26 07:48:18;;;;;;;4.88;4.18;;;;;;;;;;5084128;28;20071;-63
2023/09/26 07:50:46;;;;;;;5.07;4.60;;;;;;;;;;5083840;28;20041;-62
2023/09/26 07:53:15;;;;;;;4.07;3.67;;;;;;;;;;5082330;28;20085;-62
2023/09/26 07:55:43;;;;;;;4.85;4.43;;;;;;;;;;5081352;28;20079;-61
2023/09/26 07:58:12;;;;;;;5.20;4.80;;;;;;;;;;5080633;28;20451;-63
2023/09/26 08:00:42;;;;;;;7.22;5.30;;;;;;;;;;5081235;28;20048;-64
2023/09/26 08:03:10;;;;;;;5.00;4.53;;;;;;;;;;5086675;28;20047;-62
2023/09/26 08:05:39;;;;;;;5.20;4.80;;;;;;;;;;5082891;28;20694;-64
2023/09/26 08:08:08;;;;;;;6.68;5.93;;;;;;;;;;5084900;28;20044;-62
2023/09/26 08:10:38;;;;;;;6.30;5.70;;;;;;;;;;5080884;28;20123;-63
2023/09/26 08:13:07;;;;;;;5.78;5.28;;;;;;;;;;5086662;28;20056;-62
2023/09/26 08:15:35;;;;;;;6.72;6.13;;;;;;;;;;5084912;28;20552;-63
2023/09/26 08:18:06;;;;;;;5.82;4.78;;;;;;;;;;5089182;28;20532;-61
2023/09/26 08:20:34;;;;;;;7.38;6.68;;;;;;;;;;5089025;28;20135;-62
2023/09/26 08:23:02;;;;;;;7.25;6.57;;;;;;;;;;5091568;28;20097;-62
2023/09/26 08:25:32;;;;;;;7.57;5.72;;;;;;;;;;5083703;28;20051;-63
2023/09/26 08:28:02;;;;;;;6.65;6.00;;;;;;;;;;5087664;28;20047;-62
2023/09/26 08:30:33;;;;;;;6.43;5.82;;;;;;;;;;5087011;28;20056;-61
2023/09/26 08:33:01;;;;;;;6.10;5.50;;;;;;;;;;5083897;28;20044;-62
2023/09/26 08:35:32;;;;;;;5.65;5.15;;;;;;;;;;5083630;28;20078;-61
2023/09/26 08:38:01;;;;;;;5.82;5.22;;;;;;;;;;5090420;28;20052;-61
2023/09/26 08:40:29;;;;;;;5.30;4.80;;;;;;;;;;5087573;28;20576;-62
2023/09/26 08:42:58;;;;;;;6.03;5.45;;;;;;;;;;5087423;28;20047;-60
2023/09/26 08:45:27;;;;;;;5.03;4.63;;;;;;;;;;5083944;28;20066;-62
2023/09/26 08:47:55;;;;;;;4.63;4.22;;;;;;;;;;5086377;28;20032;-60
2023/09/26 08:50:25;;;;;;;5.25;4.75;;;;;;;;;;5088092;28;20097;-66
2023/09/26 08:52:58;;;;;;;5.78;5.20;;;;;;;;;;5084856;28;20071;-64
2023/09/26 08:55:28;;;;;;;4.63;4.18;;;;;;;;;;5088582;28;20056;-61
2023/09/26 08:57:56;;;;;;;5.53;4.97;;;;;;;;;;5085520;28;20541;-61
2023/09/26 09:00:25;;;;;;;6.32;5.72;;;;;;;;;;5085278;28;20547;-63
2023/09/26 09:02:54;;;;;;;5.82;5.32;;;;;;;;;;5082672;28;20055;-63
2023/09/26 09:05:23;;;;;;;6.22;5.72;;;;;;;;;;5085704;28;20455;-63
2023/09/26 09:07:52;;;;;;;6.00;5.22;;;;;;;;;;5086526;28;20079;-62
2023/09/26 09:10:22;;;;;;;5.78;5.15;;;;;;;;;;5086711;28;20072;-63
2023/09/26 09:13:02;;;;;;;6.07;5.47;;;;;;;;;;5084005;28;20180;-64
2023/09/26 09:15:32;;;;;;;6.38;5.78;;;;;;;;;;5086443;28;20048;-62
2023/09/26 09:18:01;;;;;;;6.10;5.50;;;;;;;;;;5082207;28;20413;-66
2023/09/26 09:20:31;;;;;;;6.05;5.45;;;;;;;;;;5083182;28;20178;-62
2023/09/26 09:23:01;;;;;;;5.30;4.80;;;;;;;;;;5087524;28;20051;-65
2023/09/26 09:25:36;;;;;;;6.35;5.75;;;;;;;;;;5086451;28;20055;-61
2023/09/26 09:28:06;;;;;;;6.10;5.60;;;;;;;;;;5082023;28;20138;-64
2023/09/26 09:30:38;;;;;;;5.90;5.40;;;;;;;;;;5086216;28;20047;-63
2023/09/26 09:33:08;;;;;;;5.72;5.22;;;;;;;;;;5084290;28;20055;-64
2023/09/26 09:35:37;;;;;;;5.78;5.28;;;;;;;;;;5084267;28;20040;-69
2023/09/26 09:38:08;;;;;;;5.43;4.93;;;;;;;;;;5085558;28;20508;-63
2023/09/26 09:40:38;;;;;;;5.20;4.80;;;;;;;;;;5086543;28;20561;-64
2023/09/26 09:43:07;;;;;;;5.55;5.00;;;;;;;;;;5084636;28;20152;-64
2023/09/26 09:45:36;;;;;;;5.22;4.78;;;;;;;;;;5082569;28;20123;-63
2023/09/26 09:48:06;;;;;;;4.72;4.32;;;;;;;;;;5085418;28;20078;-65
2023/09/26 09:50:37;;;;;;;4.68;4.28;;;;;;;;;;5083644;28;20040;-69
2023/09/26 09:53:06;;;;;;;5.40;4.85;;;;;;;;;;5088247;28;20544;-68
2023/09/26 09:55:37;;;;;;;5.57;5.10;;;;;;;;;;5085892;28;20109;-65
2023/09/26 09:58:08;;;;;;;4.45;4.05;;;;;;;;;;5086488;28;20101;-65
2023/09/26 10:00:38;;;;;;;4.55;3.80;;;;;;;;;;5082731;28;20094;-65
2023/09/26 10:03:07;;;;;;;4.05;3.65;;;;;;;;;;5084091;28;20052;-70
2023/09/26 10:05:35;;;;;;;3.22;2.83;;;;;;;;;;5084942;28;20397;-69
2023/09/26 10:08:04;;;;;;;4.35;4.00;;;;;;;;;;5079474;28;20764;-62
2023/09/26 10:10:33;;;;;;;4.38;3.97;;;;;;;;;;5079882;28;20093;-65
2023/09/26 10:13:02;;;;;;;3.95;3.58;;;;;;;;;;5084647;28;20336;-62
2023/09/26 10:16:06;;;;;;;3.92;3.63;;;;;;;;;;5083233;28;20048;-63
2023/09/26 10:18:38;;;;;;;3.90;3.45;;;;;;;;;;5086466;28;20044;-67
2023/09/26 10:21:20;;;;;;;7.20;4.00;;;;;;;;;;5081358;28;20044;-66
2023/09/26 10:24:03;;;;;;;3.85;3.55;;;;;;;;;;5077057;28;20063;-67
2023/09/26 10:26:32;;;;;;;4.22;3.85;;;;;;;;;;5067171;28;20051;-67
2023/09/26 10:29:02;;;;;;;4.47;4.07;;;;;;;;;;5081161;28;20044;-66
2023/09/26 10:31:32;;;;;;;5.78;5.25;;;;;;;;;;5081719;28;20047;-66
2023/09/26 10:34:01;;;;;;;5.88;4.40;;;;;;;;;;5084185;28;20078;-66
2023/09/26 10:36:30;;;;;;;4.57;4.18;;;;;;;;;;5080709;28;20397;-65
2023/09/26 10:38:59;;;;;;;7.32;5.15;;;;;;;;;;5078693;28;20052;-68
2023/09/26 10:41:28;;;;;;;4.53;4.10;;;;;;;;;;5082316;28;20074;-65
2023/09/26 10:43:56;;;;;;;3.80;3.50;;;;;;;;;;5082129;28;20044;-67
2023/09/26 10:46:28;;;;;;;4.88;4.38;;;;;;;;;;5079181;28;20055;-64
2023/09/26 10:48:59;;;;;;;4.57;4.22;;;;;;;;;;5083015;28;20153;-63
2023/09/26 10:51:27;;;;;;;4.45;3.67;;;;;;;;;;5081539;28;20059;-64
2023/09/26 10:53:56;;;;;;;3.88;3.58;;;;;;;;;;5077553;28;20255;-67
2023/09/26 10:56:24;;;;;;;4.70;4.28;;;;;;;;;;5086550;28;20053;-67
2023/09/26 10:58:55;;;;;;;4.18;3.78;;;;;;;;;;5081651;28;20102;-64
2023/09/26 11:01:37;;;;;;;4.35;3.95;;;;;;;;;;5083432;28;20078;-66
2023/09/26 11:04:08;;;;;;;4.10;3.78;;;;;;;;;;5083287;28;20051;-66
2023/09/26 11:06:38;;;;;;;4.95;4.45;;;;;;;;;;5083180;28;20150;-65
2023/09/26 11:09:08;;;;;;;3.28;3.05;;;;;;;;;;5081250;28;20074;-64
2023/09/26 11:11:37;;;;;;;3.35;3.05;;;;;;;;;;5084238;28;20047;-66
2023/09/26 11:14:05;;;;;;;3.50;3.20;;;;;;;;;;5082565;28;21176;-64
2023/09/26 11:16:34;;;;;;;3.90;3.53;;;;;;;;;;5082220;28;20044;-67
2023/09/26 11:19:02;;;;;;;3.40;3.10;;;;;;;;;;5082400;28;20508;-66
2023/09/26 11:21:32;;;;;;;3.90;3.60;;;;;;;;;;5083598;28;20132;-68
2023/09/26 11:24:01;;;;;;;3.78;3.03;;;;;;;;;;5081604;28;20052;-66
2023/09/26 11:26:29;;;;;;;4.05;3.70;;;;;;;;;;5084926;28;20050;-67
2023/09/26 11:28:58;;;;;;;3.63;3.33;;;;;;;;;;5079584;28;20047;-66
2023/09/26 11:31:28;;;;;;;3.60;3.30;;;;;;;;;;5083977;28;20070;-65
2023/09/26 11:33:58;;;;;;;3.25;2.88;;;;;;;;;;5082628;28;20131;-65
2023/09/26 11:36:27;;;;;;;3.20;3.00;;;;;;;;;;5082847;28;20259;-66
2023/09/26 11:38:56;;;;;;;3.83;3.53;;;;;;;;;;5081878;28;20051;-65
2023/09/26 11:41:25;;;;;;;3.03;2.35;;;;;;;;;;5084183;28;20569;-69
2023/09/26 11:44:10;;;;;;;2.60;2.40;;;;;;;;;;5085975;28;20151;-63
2023/09/26 11:46:40;;;;;;;6.63;3.30;;;;;;;;;;5086271;28;20036;-65
2023/09/26 11:49:09;;;;;;;2.88;2.67;;;;;;;;;;5084485;28;20055;-67
2023/09/26 11:51:38;;;;;;;4.07;3.67;;;;;;;;;;5089182;28;20047;-67
2023/09/26 11:54:08;;;;;;;3.17;2.97;;;;;;;;;;5087628;28;20044;-66
2023/09/26 11:56:36;;;;;;;4.10;3.63;;;;;;;;;;5087531;28;20066;-68
2023/09/26 11:59:05;;;;;;;3.35;3.15;;;;;;;;;;5086343;28;20075;-69
2023/09/26 12:01:34;;;;;;;7.80;7.30;;;;;;;;;;5086110;28;20393;-71
2023/09/26 12:04:05;;;;;;;3.30;3.00;;;;;;;;;;5086853;28;20047;-66
2023/09/26 12:06:34;;;;;;;3.00;2.80;;;;;;;;;;5082477;28;20120;-67
2023/09/26 12:09:04;;;;;;;2.33;2.22;;;;;;;;;;5082883;28;20079;-67
2023/09/26 12:11:34;;;;;;;2.75;2.30;;;;;;;;;;5083617;28;20047;-67
2023/09/26 12:14:02;;;;;;;2.50;2.40;;;;;;;;;;5082458;28;20943;-67
2023/09/26 12:16:31;;;;;;;3.10;2.83;;;;;;;;;;5084559;28;20049;-65
2023/09/26 12:19:00;;;;;;;4.05;3.75;;;;;;;;;;5085049;28;20134;-66
2023/09/26 12:21:28;;;;;;;3.35;3.15;;;;;;;;;;5083479;28;20036;-70
2023/09/26 12:23:57;;;;;;;3.60;3.13;;;;;;;;;;5083753;28;20056;-66
2023/09/26 12:26:26;;;;;;;2.80;2.58;;;;;;;;;;5081930;28;20044;-64
2023/09/26 12:28:56;;;;;;;2.83;2.63;;;;;;;;;;5080667;28;20052;-67
2023/09/26 12:31:25;;;;;;;2.63;2.42;;;;;;;;;;5080093;28;20052;-66
2023/09/26 12:33:53;;;;;;;2.50;2.30;;;;;;;;;;5083941;28;20036;-65
2023/09/26 12:36:21;;;;;;;2.22;2.05;;;;;;;;;;5084073;28;20040;-65
2023/09/26 12:38:50;;;;;;;3.05;2.83;;;;;;;;;;5085845;28;20044;-65
2023/09/26 12:41:18;;;;;;;3.22;2.75;;;;;;;;;;5083387;28;20063;-66
2023/09/26 12:43:47;;;;;;;2.78;2.58;;;;;;;;;;5081631;28;20464;-64
2023/09/26 12:46:17;;;;;;;2.40;2.20;;;;;;;;;;5080831;28;20333;-65
2023/09/26 12:48:45;;;;;;;2.42;2.28;;;;;;;;;;5079271;28;20059;-63
2023/09/26 12:51:13;;;;;;;2.63;2.42;;;;;;;;;;5087531;28;20101;-63
2023/09/26 12:53:42;;;;;;;2.60;2.40;;;;;;;;;;5085020;28;20136;-64
2023/09/26 12:56:10;;;;;;;3.05;1.88;;;;;;;;;;5087110;28;20075;-66
2023/09/26 12:58:39;;;;;;;2.13;2.03;;;;;;;;;;5086552;28;20142;-66
2023/09/26 13:01:07;;;;;;;1.90;1.80;;;;;;;;;;5083449;28;20493;-67
2023/09/26 13:03:37;;;;;;;2.75;2.50;;;;;;;;;;5081110;28;20049;-64
2023/09/26 13:06:05;;;;;;;2.95;1.90;;;;;;;;;;5082859;28;20048;-65
2023/09/26 13:08:34;;;;;;;2.15;1.98;;;;;;;;;;5084323;28;20562;-64
2023/09/26 13:11:02;;;;;;;2.70;2.50;;;;;;;;;;5081646;28;20121;-70
2023/09/26 13:13:33;;;;;;;2.72;2.13;;;;;;;;;;5079406;28;20056;-65
2023/09/26 13:16:01;;;;;;;3.33;3.13;;;;;;;;;;5081729;28;20505;-64
2023/09/26 13:18:30;;;;;;;3.20;2.90;;;;;;;;;;5081857;28;20623;-65
2023/09/26 13:21:00;;;;;;;2.60;2.42;;;;;;;;;;5081085;28;20336;-65
2023/09/26 13:23:28;;;;;;;2.60;2.47;;;;;;;;;;5080965;28;20457;-65
2023/09/26 13:25:57;;;;;;;2.95;2.75;;;;;;;;;;5084013;28;20130;-66
2023/09/26 13:28:25;;;;;;;2.35;2.20;;;;;;;;;;5081500;28;20047;-65
2023/09/26 13:30:54;;;;;;;2.70;2.50;;;;;;;;;;5084114;28;20110;-67
2023/09/26 13:33:22;;;;;;;2.78;2.58;;;;;;;;;;5082118;28;20051;-67
2023/09/26 13:35:51;;;;;;;2.55;2.35;;;;;;;;;;5078722;28;20054;-66
2023/09/26 13:38:21;;;;;;;1.77;1.67;;;;;;;;;;5082260;28;20040;-65
2023/09/26 13:40:49;;;;;;;2.40;2.20;;;;;;;;;;5083797;28;20063;-65
2023/09/26 13:43:18;;;;;;;1.90;1.70;;;;;;;;;;5079330;28;20339;-65
2023/09/26 13:45:46;;;;;;;1.85;1.70;;;;;;;;;;5080699;28;20040;-65
2023/09/26 13:48:15;;;;;;;1.88;1.77;;;;;;;;;;5083976;28;20558;-71
2023/09/26 13:50:44;;;;;;;2.25;2.10;;;;;;;;;;5083965;28;20105;-66
2023/09/26 13:53:12;;;;;;;3.00;2.00;;;;;;;;;;5085785;28;20059;-64
2023/09/26 13:55:42;;;;;;;2.15;1.95;;;;;;;;;;5083219;28;20344;-64
2023/09/26 13:58:11;;;;;;;2.28;2.17;;;;;;;;;;5083098;28;20495;-64
2023/09/26 14:00:39;;;;;;;2.30;2.20;;;;;;;;;;5077927;28;20071;-67
2023/09/26 14:03:07;;;;;;;2.35;2.20;;;;;;;;;;5084176;28;20052;-68
2023/09/26 14:05:36;;;;;;;2.10;2.00;;;;;;;;;;5077749;28;20478;-69
2023/09/26 14:08:05;;;;;;;1.75;1.65;;;;;;;;;;5079247;28;20050;-65
2023/09/26 14:10:33;;;;;;;2.28;2.08;;;;;;;;;;5074727;28;20441;-69
2023/09/26 14:13:04;;;;;;;1.92;1.83;;;;;;;;;;5075544;28;20047;-69
2023/09/26 14:15:33;;;;;;;1.80;1.70;;;;;;;;;;5076592;28;20075;-65
2023/09/26 14:18:01;;;;;;;2.40;2.20;;;;;;;;;;5074014;28;20044;-66
2023/09/26 14:20:33;;;;;;;1.90;1.80;;;;;;;;;;5084902;28;20503;-66
2023/09/26 14:23:01;;;;;;;2.13;2.03;;;;;;;;;;5082708;28;20481;-65
2023/09/26 14:25:30;;;;;;;2.20;2.00;;;;;;;;;;5085077;28;20079;-67
2023/09/26 14:28:00;;;;;;;2.40;2.20;;;;;;;;;;5084899;28;20045;-64
2023/09/26 14:30:30;;;;;;;2.50;2.30;;;;;;;;;;5083435;28;20172;-63
2023/09/26 14:33:00;;;;;;;2.58;2.13;;;;;;;;;;5075724;28;20048;-68
2023/09/26 14:35:29;;;;;;;1.90;1.80;;;;;;;;;;5082052;28;20555;-63
2023/09/26 14:37:57;;;;;;;2.15;1.95;;;;;;;;;;5083603;28;20066;-70
2023/09/26 14:40:26;;;;;;;2.40;2.20;;;;;;;;;;5079598;28;20056;-66
2023/09/26 14:42:54;;;;;;;2.95;2.03;;;;;;;;;;5082154;28;20551;-67
2023/09/26 14:45:23;;;;;;;1.95;1.85;;;;;;;;;;5077942;28;20093;-65
2023/09/26 14:47:54;;;;;;;2.55;2.10;;;;;;;;;;5084147;28;20040;-63
2023/09/26 14:50:22;;;;;;;2.15;2.05;;;;;;;;;;5081676;28;20051;-75
2023/09/26 14:52:51;;;;;;;2.00;1.90;;;;;;;;;;5078854;28;20071;-64
2023/09/26 14:55:19;;;;;;;2.03;1.92;;;;;;;;;;5079614;28;20051;-65